Share

Lovelock, NV

Derby (KLOL) Elev 3904 ft | 40.07 °N, 118.57 °W | Change Station

Current weather conditions updated 19 minutes ago

Mostly Cloudy
Mostly Cloudy
48 °F
Feels Like 48 °F
N
5
Wind Variable Wind from ENE
Sunrise 6:09 AM
Sunset 7:36 PM
Moon Waning Gibbous

Today is forecast to be Warmer than yesterday.

Pressure 29.86 in
Visibility 10.0 miles
Clouds Mostly Cloudy 9000 ft
Dew Point 17 °F
Humidity 29%
Rainfall 0.00 in
Snow Depth Not available.
UV 0 out of 16
Pollen 9.00 out of 12
Air Quality Not available.
Flu Activity Sporadic
METAR KLOL 190953Z AUTO 07004KT 10SM BKN090 09/M08 A2993 RMK AO2 SLP112 T00891083 TSNO

More Conditions Fewer Conditions

Pressure 29.86 in
Visibility 10.0 miles
Clouds Mostly Cloudy 9000 ft
Dew Point 17 °F
Humidity 29%
Rainfall 0.00 in
Snow Depth Not available.
UV 0 out of 16
Pollen 9.00 out of 12
Air Quality Not available.
Flu Activity Sporadic
METAR KLOL 190953Z AUTO 07004KT 10SM BKN090 09/M08 A2993 RMK AO2 SLP112 T00891083 TSNO

More Conditions Fewer Conditions

10-Day Weather Forecast

Almanac

Astronomy

Apr. 19, 2014 Rise Set
Actual Time 6:09 AM PDT 7:36 PM PDT
Civil Twilight 5:41 AM PDT 8:05 PM PDT
Nautical Twilight 5:07 AM PDT 8:39 PM PDT
Astronomical Twilight 4:31 AM PDT 9:15 PM PDT
Moon No Moon Rise 9:32 AM PDT
Length of Visible Light 14h 23m
Length of Day
13h 27m
Tomorrow will be 2m 27s longer.
Waning Gibbous, 81% of the Moon is Illuminated
Today
Waning Gibbous
Apr 22
Last Quarter
Apr 29
New
May 6
First Quarter
May 14
Full

Today's Extremes

State Highs State Lows

Community

  • Bleeding Hearts
    Bleeding Hearts
  • Sunset Silhouettes
    Sunset Silhouettes
  • FL sunset Perico Isle
    FL sunset Perico Isle
  • Cloudy spring view
    Cloudy spring view
  • Old barn
    Old barn

WunderPhotos

Upload Photos

1,702,676 photos uploaded!

WunderBlogs® & News

Nearby

Snow Depth

Station Depth Elevation
Lewis Peak 1 in 7400 ft
Big Creek Summit 35 in 8700 ft
Lamance Creek 2 in 6000 ft
Marlette Lake 23 in 8000 ft
Granite Peak 30 in 7800 ft

Coastal Water Temperatures

Place Temperature
No Stations Reporting

Earthquake Activity

City Distance Mag. Time & Date
Alturas, California 99 miles 2.9 12:39 AM PDT
2014-04-13
Minimum magnitude displayed is 2.5.

Nearby Weather Stations

Station Location Temp. Dew Point Humidity Wind Precip. Elev Updated Type
MesoWest LOVELOCK NNR , Lovelock, NV 50 °F 16 °F 25% NE  at  1 mph 0.00 in / hr 3934 ft 2:00 AM PDT MADIS
MesoWest CARSON SINK , Lovelock, NV 57 °F 15 °F 19% NE  at  8 mph 0.00 in / hr 3880 ft 1:20 AM PDT MADIS
MesoWest OCALA , Lovelock, NV 59 °F - - North  at  - 0.00 in / hr 3918 ft 1:25 AM PDT MADIS

Show More Stations Show Fewer Stations

What do you think?

We're not finished. Please let us know what you like, what you don't like, and what you are still missing.